createdAt,value
2018-07-23T00:00:24.820Z,91.64
2018-07-23T00:02:53.501Z,91.40
2018-07-23T00:05:21.665Z,91.46
2018-07-23T00:07:49.823Z,92.19
2018-07-23T00:10:18.057Z,92.26
2018-07-23T00:12:46.354Z,91.61
2018-07-23T00:15:15.485Z,91.70
2018-07-23T00:17:43.656Z,91.53
2018-07-23T00:20:11.860Z,92.31
2018-07-23T00:22:41.230Z,92.33
2018-07-23T00:25:09.493Z,92.32
2018-07-23T00:27:37.664Z,91.86
2018-07-23T00:30:06.679Z,92.51
2018-07-23T00:32:35.093Z,92.12
2018-07-23T00:35:04.229Z,92.02
2018-07-23T00:37:32.812Z,91.79
2018-07-23T00:40:01.273Z,92.01
2018-07-23T00:42:29.526Z,91.95
2018-07-23T00:44:57.693Z,91.90
2018-07-23T00:47:25.866Z,91.70
2018-07-23T00:49:54.070Z,91.63
2018-07-23T00:52:22.316Z,91.34
2018-07-23T00:54:50.769Z,91.76
2018-07-23T00:57:18.971Z,91.56
2018-07-23T00:59:53.890Z,91.16
2018-07-23T01:02:22.069Z,91.41
2018-07-23T01:04:51.377Z,91.82
2018-07-23T01:07:19.555Z,92.16
2018-07-23T01:09:47.832Z,92.18
2018-07-23T01:12:28.897Z,92.12
2018-07-23T01:14:57.129Z,91.92
2018-07-23T01:17:26.347Z,91.84
2018-07-23T01:19:56.440Z,91.42
2018-07-23T01:22:25.809Z,91.30
2018-07-23T01:24:55.870Z,91.72
2018-07-23T01:27:24.077Z,91.81
2018-07-23T01:29:52.246Z,92.23
2018-07-23T01:32:20.875Z,91.83
2018-07-23T01:34:49.334Z,92.17
2018-07-23T01:37:18.408Z,92.08
2018-07-23T01:39:46.607Z,91.73
2018-07-23T01:42:14.797Z,90.00
2018-07-23T01:44:42.978Z,90.28
2018-07-23T01:47:11.436Z,90.45
2018-07-23T01:49:40.078Z,91.08
2018-07-23T01:52:08.236Z,90.99
2018-07-23T01:54:36.453Z,91.22
2018-07-23T01:57:04.629Z,91.44
2018-07-23T01:59:32.792Z,92.28
2018-07-23T02:02:01.521Z,92.58
2018-07-23T02:04:30.137Z,92.69
2018-07-23T02:06:58.365Z,92.46
2018-07-23T02:09:26.828Z,92.33
2018-07-23T02:11:55.064Z,92.37
2018-07-23T02:14:23.258Z,92.71
2018-07-23T02:16:51.532Z,92.95
2018-07-23T02:19:20.138Z,92.94
2018-07-23T02:21:48.347Z,92.92
2018-07-23T02:24:16.580Z,92.78
2018-07-23T02:26:45.573Z,92.94
2018-07-23T02:29:14.283Z,92.44
2018-07-23T02:31:43.221Z,92.23
2018-07-23T02:34:11.389Z,92.20
2018-07-23T02:36:40.351Z,92.34
2018-07-23T02:39:10.771Z,91.74
2018-07-23T02:41:41.202Z,92.30
2018-07-23T02:44:09.377Z,92.31
2018-07-23T02:46:37.773Z,91.81
2018-07-23T02:49:06.015Z,91.24
2018-07-23T02:51:35.065Z,91.43
2018-07-23T02:54:03.999Z,89.69
2018-07-23T02:56:32.204Z,89.56
2018-07-23T02:59:00.436Z,89.42
2018-07-23T03:01:28.656Z,89.22
2018-07-23T03:03:57.241Z,87.93
2018-07-23T03:06:28.418Z,87.61
2018-07-23T03:08:57.690Z,88.86
2018-07-23T03:11:26.698Z,89.69
2018-07-23T03:13:55.312Z,90.35
2018-07-23T03:16:23.690Z,90.80
2018-07-23T03:18:51.991Z,91.47
2018-07-23T03:21:21.168Z,91.59
2018-07-23T03:23:49.371Z,91.26
2018-07-23T03:26:17.592Z,91.51
2018-07-23T03:28:47.269Z,91.89
2018-07-23T03:31:15.450Z,91.78
2018-07-23T03:33:43.632Z,91.47
2018-07-23T03:36:12.184Z,91.68
2018-07-23T03:38:40.354Z,91.57
2018-07-23T03:41:09.113Z,91.26
2018-07-23T03:43:37.567Z,91.00
2018-07-23T03:46:06.084Z,90.41
2018-07-23T03:48:35.187Z,89.60
2018-07-23T03:51:03.388Z,90.17
2018-07-23T03:53:31.590Z,89.85
2018-07-23T03:55:59.786Z,89.73
2018-07-23T03:58:28.008Z,89.21
2018-07-23T04:00:56.208Z,88.59
2018-07-23T04:03:25.082Z,89.00
2018-07-23T04:05:53.318Z,88.77
2018-07-23T04:08:21.602Z,88.83
2018-07-23T04:10:49.884Z,89.38
2018-07-23T04:13:18.450Z,89.16
2018-07-23T04:15:47.736Z,89.29
2018-07-23T04:18:16.229Z,88.26
2018-07-23T04:20:44.408Z,88.34
2018-07-23T04:23:12.922Z,88.35
2018-07-23T04:25:41.780Z,88.25
2018-07-23T04:28:09.996Z,88.34
2018-07-23T04:30:38.207Z,89.59
2018-07-23T04:33:06.996Z,89.29
2018-07-23T04:35:36.096Z,88.97
2018-07-23T04:38:04.333Z,88.96
2018-07-23T04:40:32.896Z,89.53
2018-07-23T04:43:02.668Z,89.26
2018-07-23T04:45:30.919Z,89.57
2018-07-23T04:48:00.047Z,88.75
2018-07-23T04:50:35.669Z,88.78
2018-07-23T04:53:04.880Z,87.85
2018-07-23T04:55:33.173Z,87.90
2018-07-23T04:58:01.603Z,87.33
2018-07-23T05:00:30.081Z,86.31
2018-07-23T05:02:58.643Z,85.23
2018-07-23T05:05:29.013Z,85.00
2018-07-23T05:07:57.267Z,84.97
2018-07-23T05:10:25.649Z,84.54
2018-07-23T05:12:53.896Z,83.94
2018-07-23T05:15:22.121Z,84.00
2018-07-23T05:17:50.984Z,83.72
2018-07-23T05:20:19.221Z,83.37
2018-07-23T05:22:47.744Z,84.21
2018-07-23T05:25:16.226Z,84.60
2018-07-23T05:27:44.521Z,84.23
2018-07-23T05:30:12.692Z,84.89
2018-07-23T05:32:41.328Z,84.37
2018-07-23T05:35:10.112Z,84.05
2018-07-23T05:37:38.692Z,83.96
2018-07-23T05:40:07.385Z,83.65
2018-07-23T05:42:36.202Z,83.24
2018-07-23T05:45:06.129Z,83.06
2018-07-23T05:47:34.574Z,83.33
2018-07-23T05:50:04.525Z,81.79
2018-07-23T05:52:33.076Z,82.69
2018-07-23T05:55:01.464Z,82.50
2018-07-23T05:57:29.762Z,81.82
2018-07-23T05:59:58.049Z,81.27
2018-07-23T06:02:27.772Z,81.25
2018-07-23T06:04:55.931Z,81.07
2018-07-23T06:07:24.198Z,80.31
2018-07-23T06:09:52.465Z,80.65
2018-07-23T06:12:20.897Z,80.07
2018-07-23T06:14:49.138Z,80.33
2018-07-23T06:17:17.348Z,80.08
2018-07-23T06:19:45.581Z,79.34
2018-07-23T06:22:14.087Z,79.27
2018-07-23T06:24:42.478Z,78.52
2018-07-23T06:27:10.943Z,78.90
2018-07-23T06:29:39.473Z,76.75
2018-07-23T06:32:08.331Z,76.89
2018-07-23T06:34:36.601Z,77.88
2018-07-23T06:37:04.838Z,75.97
2018-07-23T06:39:33.352Z,75.98
2018-07-23T06:42:02.032Z,75.76
2018-07-23T06:44:30.285Z,75.19
2018-07-23T06:46:58.914Z,75.55
2018-07-23T06:49:27.213Z,76.40
2018-07-23T06:51:55.585Z,75.39
2018-07-23T06:54:24.171Z,74.38
2018-07-23T06:56:52.425Z,74.50
2018-07-23T06:59:21.048Z,74.59
2018-07-23T07:01:49.233Z,74.90
2018-07-23T07:04:17.676Z,75.06
2018-07-23T07:06:46.071Z,75.08
2018-07-23T07:09:14.325Z,74.50
2018-07-23T07:11:42.746Z,74.33
2018-07-23T07:14:11.041Z,73.89
2018-07-23T07:16:39.605Z,73.06
2018-07-23T07:19:07.860Z,74.06
2018-07-23T07:21:36.321Z,74.04
2018-07-23T07:24:05.228Z,72.62
2018-07-23T07:26:33.808Z,72.77
2018-07-23T07:29:02.154Z,73.24
2018-07-23T07:31:30.935Z,73.55
2018-07-23T07:33:59.148Z,73.12
2018-07-23T07:36:27.561Z,72.23
2018-07-23T07:38:56.490Z,71.68
2018-07-23T07:41:25.005Z,72.42
2018-07-23T07:43:53.286Z,72.67
2018-07-23T07:46:21.879Z,72.17
2018-07-23T07:48:50.150Z,71.05
2018-07-23T07:51:18.402Z,71.97
2018-07-23T07:53:47.255Z,71.36
2018-07-23T07:56:15.470Z,71.61
2018-07-23T07:58:43.794Z,70.15
2018-07-23T08:01:12.513Z,71.18
2018-07-23T08:03:40.852Z,70.23
2018-07-23T08:06:09.587Z,68.50
2018-07-23T08:08:38.169Z,67.68
2018-07-23T08:11:06.840Z,68.39
2018-07-23T08:13:36.229Z,67.48
2018-07-23T08:16:04.739Z,64.45
2018-07-23T08:18:33.515Z,64.66
2018-07-23T08:21:02.849Z,64.21
2018-07-23T08:23:31.939Z,63.60
2018-07-23T08:26:00.539Z,64.40
2018-07-23T08:28:28.852Z,61.61
2018-07-23T08:30:57.107Z,60.44
2018-07-23T08:33:26.653Z,59.66
2018-07-23T08:35:54.864Z,60.54
2018-07-23T08:38:23.105Z,59.48
2018-07-23T08:40:51.537Z,60.45
2018-07-23T08:43:20.378Z,59.63
2018-07-23T08:45:49.566Z,58.85
2018-07-23T08:48:17.797Z,59.53
2018-07-23T08:50:46.688Z,57.41
2018-07-23T08:53:15.073Z,59.40
2018-07-23T08:55:43.324Z,59.79
2018-07-23T08:58:12.174Z,58.99
2018-07-23T09:00:41.052Z,59.88
2018-07-23T09:03:09.406Z,59.56
2018-07-23T09:05:38.114Z,59.21
2018-07-23T09:08:06.445Z,57.92
2018-07-23T09:10:34.618Z,59.10
2018-07-23T09:13:03.101Z,59.64
2018-07-23T09:15:31.792Z,59.28
2018-07-23T09:18:00.364Z,60.77
2018-07-23T09:20:28.808Z,59.99
2018-07-23T09:22:57.038Z,58.54
2018-07-23T09:25:31.051Z,58.95
2018-07-23T09:27:59.289Z,59.37
2018-07-23T09:30:33.483Z,57.69
2018-07-23T09:33:01.686Z,58.40
2018-07-23T09:35:30.063Z,57.47
2018-07-23T09:37:58.306Z,56.74
2018-07-23T09:40:26.514Z,55.71
2018-07-23T09:42:54.753Z,54.79
2018-07-23T09:45:23.701Z,54.50
2018-07-23T09:47:51.903Z,52.77
2018-07-23T09:50:21.642Z,51.85
2018-07-23T09:52:49.875Z,49.43
2018-07-23T09:55:18.098Z,48.88
2018-07-23T09:57:46.700Z,48.26
2018-07-23T10:00:19.569Z,48.51
2018-07-23T10:02:47.742Z,48.69
2018-07-23T10:05:16.243Z,49.53
2018-07-23T10:07:44.926Z,50.44
2018-07-23T10:10:13.134Z,48.30
2018-07-23T10:12:41.617Z,46.44
2018-07-23T10:15:09.834Z,48.21
2018-07-23T10:17:38.181Z,44.79
2018-07-23T10:20:06.458Z,45.70
2018-07-23T10:22:34.970Z,46.05
2018-07-23T10:25:03.616Z,47.26
2018-07-23T10:27:32.174Z,45.17
2018-07-23T10:30:00.535Z,44.59
2018-07-23T10:32:29.160Z,45.16
2018-07-23T10:34:57.857Z,45.13
2018-07-23T10:37:26.259Z,43.47
2018-07-23T10:39:54.479Z,43.49
2018-07-23T10:42:23.448Z,45.11
2018-07-23T10:44:53.466Z,41.76
2018-07-23T10:47:22.617Z,39.72
2018-07-23T10:49:51.437Z,39.95
2018-07-23T10:52:19.598Z,39.74
2018-07-23T10:54:47.814Z,37.31
2018-07-23T10:57:16.081Z,40.18
2018-07-23T10:59:44.712Z,39.05
2018-07-23T11:02:13.597Z,39.22
2018-07-23T11:04:42.166Z,40.67
2018-07-23T11:07:10.408Z,39.97
2018-07-23T11:09:39.203Z,39.42
2018-07-23T11:12:07.860Z,39.81
2018-07-23T11:14:36.169Z,39.62
2018-07-23T11:17:04.673Z,40.53
2018-07-23T11:19:32.901Z,39.89
2018-07-23T11:22:01.090Z,39.90
2018-07-23T11:24:29.426Z,39.81
2018-07-23T11:26:58.242Z,39.29
2018-07-23T11:29:27.103Z,38.74
2018-07-23T11:31:55.347Z,39.23
2018-07-23T11:34:23.880Z,37.71
2018-07-23T11:36:52.080Z,36.65
2018-07-23T11:39:20.301Z,37.32
2018-07-23T11:41:48.478Z,37.90
2018-07-23T11:44:16.767Z,36.94
2018-07-23T11:46:45.563Z,35.66
2018-07-23T11:49:13.756Z,34.68
2018-07-23T11:51:41.940Z,35.29
2018-07-23T11:54:10.861Z,36.48
2018-07-23T11:56:39.220Z,37.10
2018-07-23T11:59:07.781Z,36.58
2018-07-23T12:01:37.659Z,36.09
2018-07-23T12:04:10.406Z,36.01
2018-07-23T12:06:35.681Z,36.37
2018-07-23T12:09:07.381Z,37.16
2018-07-23T12:11:35.897Z,36.44
2018-07-23T12:14:06.132Z,35.40
2018-07-23T12:16:35.012Z,35.25
2018-07-23T12:19:07.084Z,35.33
2018-07-23T12:21:41.230Z,33.47
2018-07-23T12:24:10.873Z,35.26
2018-07-23T12:26:43.554Z,37.00
2018-07-23T12:29:19.140Z,34.33
2018-07-23T12:31:51.183Z,33.78
2018-07-23T12:34:30.907Z,34.37
2018-07-23T12:37:03.897Z,35.19
2018-07-23T12:39:37.106Z,32.95
2018-07-23T12:42:13.073Z,33.96
2018-07-23T12:44:42.393Z,34.05
2018-07-23T12:47:12.136Z,33.00
2018-07-23T12:49:41.860Z,31.63
2018-07-23T12:52:16.472Z,32.46
2018-07-23T12:54:54.980Z,30.76
2018-07-23T12:57:30.235Z,30.47
2018-07-23T13:00:04.328Z,29.92
2018-07-23T13:02:35.295Z,29.53
2018-07-23T13:05:11.332Z,29.40
2018-07-23T13:07:41.538Z,29.26
2018-07-23T13:10:10.084Z,29.72
2018-07-23T13:12:46.098Z,28.49
2018-07-23T13:15:21.217Z,28.95
2018-07-23T13:17:53.409Z,28.27
2018-07-23T13:20:22.211Z,28.05
2018-07-23T13:22:51.204Z,28.55
2018-07-23T13:25:19.594Z,27.35
2018-07-23T13:27:47.898Z,25.21
2018-07-23T13:30:19.599Z,24.72
2018-07-23T13:32:52.814Z,23.21
2018-07-23T13:35:22.781Z,22.79
2018-07-23T13:38:01.038Z,23.15
2018-07-23T13:40:49.878Z,22.57
2018-07-23T13:43:27.104Z,21.27
2018-07-23T13:46:01.869Z,20.93
2018-07-23T13:48:30.311Z,21.50
2018-07-23T13:50:58.841Z,21.08
2018-07-23T13:53:28.575Z,21.53
2018-07-23T13:56:06.007Z,21.22
2018-07-23T13:58:40.940Z,20.95
2018-07-23T14:01:18.695Z,22.76
2018-07-23T14:03:56.908Z,22.59
2018-07-23T14:06:37.970Z,23.88
2018-07-23T14:09:22.652Z,26.21
2018-07-23T14:12:04.835Z,27.72
2018-07-23T14:14:41.062Z,27.50
2018-07-23T14:17:26.736Z,23.50
2018-07-23T14:20:19.539Z,20.71
2018-07-23T14:22:56.614Z,18.88
2018-07-23T14:25:46.212Z,19.05
2018-07-23T14:28:36.824Z,17.69
2018-07-23T14:31:13.929Z,17.03
2018-07-23T14:33:59.293Z,19.00
2018-07-23T14:36:48.374Z,18.48
2018-07-23T14:39:30.342Z,18.63
2018-07-23T14:42:03.038Z,19.33
2018-07-23T14:44:34.783Z,19.34
2018-07-23T14:50:59.607Z,18.02
2018-07-23T14:53:31.060Z,17.69
2018-07-23T14:55:59.516Z,16.41
2018-07-23T14:58:27.655Z,16.86
2018-07-23T15:00:56.042Z,16.10
2018-07-23T15:03:24.274Z,16.33
2018-07-23T15:05:52.521Z,17.00
2018-07-23T15:08:21.796Z,16.59
2018-07-23T15:11:02.250Z,16.31
2018-07-23T15:13:36.162Z,17.40
2018-07-23T15:16:15.467Z,18.62
2018-07-23T15:18:43.865Z,17.49
2018-07-23T15:21:15.791Z,17.20
2018-07-23T15:23:45.898Z,19.23
2018-07-23T15:26:26.578Z,17.81
2018-07-23T15:29:01.204Z,17.05
2018-07-23T15:31:29.472Z,17.10
2018-07-23T15:33:57.661Z,17.56
2018-07-23T15:36:26.202Z,17.33
2018-07-23T15:38:55.371Z,17.64
2018-07-23T15:41:24.446Z,17.12
2018-07-23T15:43:53.548Z,16.72
2018-07-23T15:46:29.774Z,18.40
2018-07-23T15:49:08.272Z,18.46
2018-07-23T15:51:37.149Z,18.69
2018-07-23T15:54:05.840Z,18.76
2018-07-23T15:56:34.358Z,18.73
2018-07-23T15:59:02.766Z,19.53
2018-07-23T16:01:30.979Z,19.80
2018-07-23T16:03:59.562Z,19.12
2018-07-23T16:06:28.063Z,17.97
2018-07-23T16:08:56.421Z,18.08
2018-07-23T16:11:24.733Z,17.48
2018-07-23T16:13:53.147Z,17.33
2018-07-23T16:16:21.874Z,18.38
2018-07-23T16:18:51.457Z,18.82
2018-07-23T16:21:19.692Z,18.50
2018-07-23T16:23:48.574Z,18.14
2018-07-23T16:26:18.247Z,19.30
2018-07-23T16:28:46.474Z,20.35
2018-07-23T16:31:14.636Z,20.58
2018-07-23T16:33:43.188Z,20.77
2018-07-23T16:36:11.814Z,21.88
2018-07-23T16:38:40.460Z,21.42
2018-07-23T16:41:08.706Z,21.87
2018-07-23T16:43:37.256Z,22.17
2018-07-23T16:46:05.868Z,21.19
2018-07-23T16:48:36.985Z,22.57
2018-07-23T16:51:06.075Z,20.18
2018-07-23T16:53:36.399Z,20.72
2018-07-23T16:56:05.373Z,20.23
2018-07-23T16:58:36.629Z,21.66
2018-07-23T17:01:05.051Z,22.52
2018-07-23T17:03:40.634Z,22.37
2018-07-23T17:06:09.322Z,22.24
2018-07-23T17:08:42.230Z,22.80
2018-07-23T17:11:11.251Z,22.28
2018-07-23T17:13:40.432Z,21.78
2018-07-23T17:16:08.705Z,22.04
2018-07-23T17:18:38.357Z,21.66
2018-07-23T17:21:07.260Z,22.20
2018-07-23T17:23:35.672Z,23.71
2018-07-23T17:26:03.876Z,23.28
2018-07-23T17:28:32.083Z,24.99
2018-07-23T17:31:00.300Z,25.53
2018-07-23T17:33:28.770Z,25.60
2018-07-23T17:35:57.960Z,25.40
2018-07-23T17:38:26.572Z,26.12
2018-07-23T17:40:54.740Z,25.73
2018-07-23T17:43:23.342Z,26.33
2018-07-23T17:45:51.693Z,26.73
2018-07-23T17:48:20.353Z,26.48
2018-07-23T17:50:49.332Z,28.72
2018-07-23T17:53:17.430Z,28.22
2018-07-23T17:55:45.897Z,28.79
2018-07-23T17:58:14.464Z,29.28
2018-07-23T18:00:42.945Z,30.10
2018-07-23T18:03:11.712Z,31.79
2018-07-23T18:05:40.992Z,33.68
2018-07-23T18:08:09.379Z,34.90
2018-07-23T18:10:37.599Z,36.86
2018-07-23T18:13:06.120Z,37.15
2018-07-23T18:15:34.616Z,37.51
2018-07-23T18:18:04.002Z,37.86
2018-07-23T18:20:33.125Z,39.04
2018-07-23T18:23:01.650Z,39.32
2018-07-23T18:25:31.444Z,40.50
2018-07-23T18:28:01.571Z,40.17
2018-07-23T18:30:31.021Z,39.84
2018-07-23T18:32:59.322Z,40.42
2018-07-23T18:35:27.555Z,41.33
2018-07-23T18:37:56.309Z,41.67
2018-07-23T18:40:25.363Z,41.87
2018-07-23T18:42:53.886Z,42.04
2018-07-23T18:45:22.151Z,41.90
2018-07-23T18:47:50.690Z,43.22
2018-07-23T18:50:19.444Z,43.44
2018-07-23T18:52:47.704Z,43.50
2018-07-23T18:55:16.196Z,43.81
2018-07-23T18:57:44.535Z,44.41
2018-07-23T19:00:12.968Z,45.03
2018-07-23T19:02:41.599Z,45.72
2018-07-23T19:05:09.854Z,46.00
2018-07-23T19:07:38.386Z,46.71
2018-07-23T19:10:08.737Z,46.27
2018-07-23T19:12:37.764Z,46.77
2018-07-23T19:15:06.768Z,48.52
2018-07-23T19:17:36.934Z,48.51
2018-07-23T19:20:05.521Z,49.14
2018-07-23T19:22:37.028Z,48.43
2018-07-23T19:25:07.525Z,48.86
2018-07-23T19:27:38.219Z,49.76
2018-07-23T19:30:08.683Z,50.26
2018-07-23T19:32:37.233Z,50.67
2018-07-23T19:35:07.848Z,50.97
2018-07-23T19:37:36.067Z,51.50
2018-07-23T19:40:04.328Z,52.23
2018-07-23T19:42:32.692Z,52.56
2018-07-23T19:45:01.481Z,51.63
2018-07-23T19:47:30.099Z,51.01
2018-07-23T19:49:58.280Z,51.19
2018-07-23T19:52:26.496Z,51.63
2018-07-23T19:54:54.700Z,52.41
2018-07-23T19:57:24.705Z,52.82
2018-07-23T19:59:53.074Z,52.86
2018-07-23T20:02:21.521Z,53.39
2018-07-23T20:04:49.694Z,53.97
2018-07-23T20:07:20.370Z,54.57
2018-07-23T20:09:48.564Z,53.96
2018-07-23T20:12:18.148Z,54.34
2018-07-23T20:14:46.486Z,55.17
2018-07-23T20:17:15.572Z,55.16
2018-07-23T20:19:48.685Z,54.94
2018-07-23T20:22:18.135Z,55.34
2018-07-23T20:24:46.309Z,56.63
2018-07-23T20:27:15.706Z,56.37
2018-07-23T20:29:44.144Z,56.99
2018-07-23T20:32:12.793Z,56.07
2018-07-23T20:34:40.991Z,56.30
2018-07-23T20:37:09.510Z,56.30
2018-07-23T20:39:38.005Z,56.70
2018-07-23T20:42:06.284Z,56.81
2018-07-23T20:44:34.533Z,57.13
2018-07-23T20:47:03.829Z,57.21
2018-07-23T20:49:33.377Z,57.50
2018-07-23T20:52:02.615Z,58.45
2018-07-23T20:54:31.159Z,58.30
2018-07-23T20:57:01.847Z,59.21
2018-07-23T20:59:30.068Z,59.21
2018-07-23T21:01:58.541Z,59.32
2018-07-23T21:04:29.240Z,59.74
2018-07-23T21:06:57.340Z,59.34
2018-07-23T21:09:25.688Z,60.31
2018-07-23T21:11:54.200Z,60.24
2018-07-23T21:14:22.748Z,60.73
2018-07-23T21:16:51.001Z,61.28
2018-07-23T21:19:19.163Z,61.53
2018-07-23T21:21:48.115Z,61.81
2018-07-23T21:24:16.284Z,62.08
2018-07-23T21:26:44.541Z,62.38
2018-07-23T21:29:12.984Z,62.79
2018-07-23T21:31:41.883Z,62.99
2018-07-23T21:34:10.188Z,62.96
2018-07-23T21:36:39.471Z,63.00
2018-07-23T21:39:09.678Z,63.41
2018-07-23T21:41:39.360Z,63.43
2018-07-23T21:44:09.232Z,63.63
2018-07-23T21:46:37.405Z,63.56
2018-07-23T21:49:05.780Z,63.84
2018-07-23T21:51:34.845Z,64.37
2018-07-23T21:54:03.126Z,64.88
2018-07-23T21:56:31.876Z,64.84
2018-07-23T21:59:00.409Z,65.60
2018-07-23T22:01:28.914Z,66.58
2018-07-23T22:03:57.476Z,67.13
2018-07-23T22:06:25.955Z,67.76
2018-07-23T22:08:55.483Z,67.83
2018-07-23T22:11:23.681Z,67.85
2018-07-23T22:13:51.924Z,67.75
2018-07-23T22:16:20.193Z,67.65
2018-07-23T22:18:48.444Z,67.66
2018-07-23T22:21:16.648Z,67.89
2018-07-23T22:23:44.878Z,68.41
2018-07-23T22:26:13.695Z,68.57
2018-07-23T22:28:42.516Z,69.38
2018-07-23T22:31:10.615Z,69.16
2018-07-23T22:33:39.525Z,69.01
2018-07-23T22:36:07.740Z,69.36
2018-07-23T22:38:36.864Z,69.34
2018-07-23T22:41:05.144Z,68.91
2018-07-23T22:43:35.303Z,69.21
2018-07-23T22:46:04.384Z,69.80
2018-07-23T22:48:33.147Z,69.30
2018-07-23T22:51:01.941Z,69.30
2018-07-23T22:53:30.502Z,69.36
2018-07-23T22:55:58.856Z,69.50
2018-07-23T22:58:27.229Z,70.21
2018-07-23T23:00:55.756Z,70.75
2018-07-23T23:03:23.987Z,71.45
2018-07-23T23:05:52.227Z,71.48
2018-07-23T23:08:20.915Z,71.77
2018-07-23T23:10:50.375Z,72.39
2018-07-23T23:13:19.339Z,72.31
2018-07-23T23:15:47.586Z,72.84
2018-07-23T23:18:15.793Z,72.86
2018-07-23T23:20:44.529Z,72.96
2018-07-23T23:23:12.699Z,72.91
2018-07-23T23:25:40.877Z,73.17
2018-07-23T23:28:09.076Z,73.32
2018-07-23T23:30:37.253Z,73.01
2018-07-23T23:33:05.771Z,72.26
2018-07-23T23:35:34.040Z,72.69
2018-07-23T23:38:02.229Z,73.38
2018-07-23T23:40:30.719Z,73.88
2018-07-23T23:42:58.919Z,73.45
2018-07-23T23:45:27.140Z,73.42
2018-07-23T23:47:55.944Z,73.65
2018-07-23T23:50:24.079Z,74.10
2018-07-23T23:52:52.749Z,74.37
2018-07-23T23:55:21.196Z,74.65
2018-07-23T23:57:49.711Z,74.83
